Time;durP1;ratioP1;P1;durP2;ratioP2;P2;SDS_P1;SDS_P2;PMS_P1;PMS_P2;Temp;Humidity;BMP_temperature;BMP_pressure;BME280_temperature;BME280_humidity;BME280_pressure;Samples;Min_cycle;Max_cycle;Signal;HPM_P1;HPM_P2
2023/01/14 00:01:28;;;;;;;7.53;1.77;;;6.60;83.80;;;9.68;50.90;97966.69;5032675;28;20049;-41
2023/01/14 00:03:56;;;;;;;9.63;1.67;;;6.60;84.10;;;9.63;50.70;97977.75;5024393;28;20049;-41
2023/01/14 00:06:30;;;;;;;6.43;2.47;;;6.50;84.10;;;9.57;50.73;97976.50;5033798;28;20044;-41
2023/01/14 00:09:00;;;;;;;;;;;6.50;84.30;;;9.55;50.76;97986.47;5026767;28;20041;-42
2023/01/14 00:11:46;;;;;;;6.93;2.30;;;6.50;84.20;;;9.54;50.65;97991.91;5033459;28;19928;-43
2023/01/14 00:14:20;;;;;;;6.67;2.00;;;6.40;84.50;;;9.46;50.77;97993.50;5033825;28;20049;-42
2023/01/14 00:16:51;;;;;;;5.63;1.50;;;6.30;84.90;;;9.40;51.14;98001.19;5033543;28;20060;-41
2023/01/14 00:19:20;;;;;;;4.37;1.87;;;6.20;85.20;;;9.36;51.03;97995.34;5033322;28;20057;-43
2023/01/14 00:21:49;;;;;;;5.27;1.90;;;6.20;85.60;;;9.29;51.35;97996.91;5033236;28;20496;-44
2023/01/14 00:24:19;;;;;;;3.37;2.07;;;6.10;86.00;;;9.24;51.51;98000.00;5033256;28;20038;-41
2023/01/14 00:26:52;;;;;;;5.33;2.00;;;6.00;86.60;;;9.20;51.40;97987.16;5033255;28;20042;-41
2023/01/14 00:29:27;;;;;;;4.70;2.25;;;6.00;87.00;;;9.17;51.36;97998.91;5032392;28;20428;-41
2023/01/14 00:32:03;;;;;;;6.87;2.70;;;5.90;87.40;;;9.14;51.48;97985.06;5023694;28;20597;-42
2023/01/14 00:34:33;;;;;;;3.03;1.63;;;5.80;87.70;;;9.10;51.57;97981.03;5031662;28;20048;-42
2023/01/14 00:37:01;;;;;;;6.50;2.13;;;5.80;88.10;;;9.09;51.68;97984.66;5015792;28;20053;-42
2023/01/14 00:39:28;;;;;;;5.13;2.10;;;5.80;88.10;;;9.04;51.86;97985.94;5014563;28;20504;-43
2023/01/14 00:41:56;;;;;;;5.37;2.00;;;5.80;88.30;;;9.02;51.75;97974.59;5023675;28;20068;-44
2023/01/14 00:44:24;;;;;;;4.30;2.40;;;5.80;88.50;;;9.03;51.80;97989.56;5048449;28;20042;-42
2023/01/14 00:46:53;;;;;;;6.53;2.80;;;5.70;88.60;;;9.03;51.98;97988.72;5032162;28;20205;-41
2023/01/14 00:49:24;;;;;;;5.17;1.97;;;5.80;88.70;;;9.02;51.75;97985.22;5031406;28;20605;-42
2023/01/14 00:51:52;;;;;;;3.13;1.80;;;5.70;88.80;;;9.00;51.97;97976.56;5032781;28;20045;-43
2023/01/14 00:54:20;;;;;;;5.60;1.93;;;5.70;88.80;;;9.00;51.91;97975.75;5031842;28;20041;-41
2023/01/14 00:56:48;;;;;;;8.90;3.00;;;5.80;88.80;;;9.00;51.86;97981.88;5031733;28;20418;-41
2023/01/14 00:59:21;;;;;;;7.37;2.00;;;5.70;88.90;;;9.00;51.94;97978.41;5031227;28;20061;-44
2023/01/14 01:01:52;;;;;;;7.23;2.40;;;5.80;88.40;;;9.02;51.88;97979.91;5032664;28;20504;-41
2023/01/14 01:04:19;;;;;;;7.80;1.50;;;5.80;88.30;;;9.03;51.92;97971.00;5031896;28;20046;-43
2023/01/14 01:06:47;;;;;;;5.70;1.90;;;5.90;87.50;;;9.07;51.61;97974.16;5031745;28;20045;-41
2023/01/14 01:09:15;;;;;;;9.97;2.17;;;6.00;86.70;;;9.09;51.61;97966.88;5031205;28;20054;-42
2023/01/14 01:11:42;;;;;;;8.17;1.80;;;6.00;86.00;;;9.07;51.62;97979.47;5032229;28;20046;-42
2023/01/14 01:14:10;;;;;;;6.87;2.43;;;6.10;85.30;;;9.04;51.73;97975.31;5032869;28;20045;-41
2023/01/14 01:16:37;;;;;;;5.33;1.63;;;6.00;84.90;;;9.10;51.50;97971.25;5032440;28;20049;-43
2023/01/14 01:19:06;;;;;;;2.97;1.90;;;6.20;84.70;;;9.08;51.45;97975.84;5031316;28;20045;-42
2023/01/14 01:21:33;;;;;;;7.03;2.37;;;6.10;84.10;;;9.09;51.61;97976.69;5031146;28;20053;-41
2023/01/14 01:24:01;;;;;;;5.30;2.10;;;6.20;84.00;;;9.12;51.30;97974.59;5032263;28;20505;-41
2023/01/14 01:26:29;;;;;;;5.07;1.80;;;6.20;83.80;;;9.16;51.35;97981.28;5031626;28;20523;-42
2023/01/14 01:28:57;;;;;;;7.23;1.33;;;6.20;83.40;;;9.16;51.13;97973.31;5031934;28;20034;-42
2023/01/14 01:31:27;;;;;;;7.83;2.23;;;6.20;83.10;;;9.19;51.14;97975.69;5030786;28;20072;-44
2023/01/14 01:33:56;;;;;;;5.13;1.93;;;6.20;83.00;;;9.20;50.88;97979.19;5030810;28;20041;-41
2023/01/14 01:36:27;;;;;;;8.10;2.20;;;6.20;82.70;;;9.12;51.01;97979.91;5014445;28;20406;-41
2023/01/14 01:38:56;;;;;;;7.13;2.00;;;6.20;82.80;;;9.11;51.15;97977.38;5030434;28;20045;-41
2023/01/14 01:41:28;;;;;;;3.83;1.53;;;6.10;83.20;;;9.06;51.26;97976.00;5032062;28;20412;-42
2023/01/14 01:44:07;;;;;;;7.47;2.10;;;6.10;83.00;;;9.09;51.20;97979.34;5031004;28;20053;-44
2023/01/14 01:46:37;;;;;;;3.60;1.70;;;6.10;83.10;;;9.10;51.26;97984.50;5031589;28;20146;-41
2023/01/14 01:49:16;;;;;;;4.57;1.30;;;6.10;83.00;;;9.11;51.10;97983.56;5031779;28;20048;-44
2023/01/14 01:51:59;;;;;;;6.10;1.63;;;6.10;83.20;;;9.12;51.01;97990.53;5030323;28;20045;-45
2023/01/14 01:54:33;;;;;;;5.57;2.33;;;6.10;83.10;;;9.13;51.01;97991.34;5030541;28;20049;-44
2023/01/14 01:57:03;;;;;;;7.33;2.40;;;6.10;82.80;;;9.17;50.69;97996.25;5007169;28;20045;-42
2023/01/14 01:59:37;;;;;;;5.93;2.20;;;6.20;82.70;;;9.20;50.62;98001.25;5022345;28;20053;-43
2023/01/14 02:02:05;;;;;;;5.25;1.45;;;6.20;82.30;;;9.22;50.57;98001.94;5020791;28;20057;-42
2023/01/14 02:04:33;;;;;;;5.13;3.33;;;6.20;82.10;;;9.24;50.62;98001.81;5029717;28;20046;-44
2023/01/14 02:07:21;;;;;;;5.87;2.10;;;6.20;82.20;;;9.24;50.61;98001.81;5023463;28;20064;-41
2023/01/14 02:10:04;;;;;;;4.93;1.80;;;6.20;82.10;;;9.25;50.44;98004.34;5030720;28;20488;-42
2023/01/14 02:12:52;;;;;;;7.47;1.87;;;6.20;82.10;;;9.29;50.44;98006.72;5030389;28;20044;-45
2023/01/14 02:15:45;;;;;;;5.00;1.53;;;6.20;81.60;;;9.29;50.44;98010.19;5026259;28;20050;-44
2023/01/14 02:18:34;;;;;;;4.13;1.77;;;6.20;81.90;;;9.32;50.50;98009.88;5000373;28;20049;-41
2023/01/14 02:21:22;;;;;;;9.80;2.40;;;6.20;81.80;;;9.34;50.53;98007.09;5022543;28;20049;-43
2023/01/14 02:23:58;;;;;;;4.07;1.57;;;6.20;81.40;;;9.36;50.03;98010.44;5030264;28;20045;-42
2023/01/14 02:27:17;;;;;;;9.43;2.03;;;6.20;81.40;;;9.25;50.79;98012.31;5029715;28;20053;-41
2023/01/14 02:30:11;;;;;;;4.77;2.13;;;6.10;81.70;;;9.22;50.14;98004.59;5028094;28;20060;-42
2023/01/14 02:33:09;;;;;;;4.17;1.80;;;6.00;82.00;;;9.12;50.05;97997.66;5030124;28;20073;-41
2023/01/14 02:35:52;;;;;;;9.10;2.20;;;5.90;82.20;;;9.07;50.15;98000.72;5029961;28;20049;-42
2023/01/14 02:38:49;;;;;;;5.87;2.43;;;5.80;82.60;;;8.97;50.26;97992.78;5022187;28;20046;-43
2023/01/14 02:44:32;;;;;;;9.60;1.80;;;5.60;83.80;;;8.96;50.50;98004.41;5017380;28;20049;-41
2023/01/14 02:47:16;;;;;;;4.13;1.63;;;5.60;84.00;;;8.97;50.50;98006.06;5014209;28;20049;-43
2023/01/14 02:49:48;;;;;;;3.55;1.50;;;5.70;84.10;;;9.01;50.76;98003.97;5029309;28;20049;-42
2023/01/14 02:52:17;;;;;;;2.83;1.60;;;5.70;84.30;;;9.06;50.79;97991.94;5013898;28;20045;-41
2023/01/14 02:55:01;;;;;;;5.97;1.53;;;5.80;84.10;;;9.06;50.70;97999.91;5029732;28;20049;-42
2023/01/14 02:57:59;;;;;;;9.57;1.90;;;5.80;83.50;;;9.11;50.35;98001.28;5030061;28;20351;-41
2023/01/14 03:00:46;;;;;;;4.93;1.70;;;5.80;83.60;;;9.08;50.52;97989.13;5029450;28;20048;-42
2023/01/14 03:04:02;;;;;;;3.97;1.53;;;5.80;83.60;;;8.96;50.49;97998.25;5023138;28;20065;-42
2023/01/14 03:06:56;;;;;;;4.37;2.30;;;5.70;83.70;;;8.91;50.42;97988.03;5029401;28;20058;-41
2023/01/14 03:09:47;;;;;;;4.53;1.73;;;5.60;84.10;;;8.83;50.48;97994.06;5011063;28;20057;-43
2023/01/14 03:12:30;;;;;;;6.40;1.90;;;5.60;84.40;;;8.85;50.71;97986.78;5023576;28;20489;-43
2023/01/14 03:15:16;;;;;;;4.67;1.43;;;5.60;84.50;;;8.89;50.92;97979.38;5029228;28;20060;-43
2023/01/14 03:17:57;;;;;;;5.50;2.00;;;5.60;84.50;;;8.98;50.77;97983.00;5029276;28;20060;-41
2023/01/14 03:20:34;;;;;;;4.30;1.40;;;5.70;84.60;;;9.02;50.54;97979.09;5029802;28;20053;-45
2023/01/14 03:23:06;;;;;;;4.67;1.50;;;5.70;84.30;;;9.04;50.78;97975.31;5013107;28;20500;-42
2023/01/14 03:25:41;;;;;;;8.17;2.60;;;5.80;84.50;;;9.07;50.63;97974.16;5029403;28;20512;-42
2023/01/14 03:28:28;;;;;;;7.25;1.58;;;5.80;84.60;;;9.11;50.79;97972.94;5022905;28;20046;-42
2023/01/14 03:31:07;;;;;;;3.37;1.70;;;5.80;84.40;;;9.14;50.81;97969.97;5028705;28;20053;-42
2023/01/14 03:34:00;;;;;;;4.50;1.40;;;5.80;84.40;;;9.17;50.69;97976.78;5030530;28;20045;-45
2023/01/14 03:36:32;;;;;;;4.63;2.03;;;5.80;84.40;;;9.16;50.80;97967.16;5029548;28;20041;-46
2023/01/14 03:39:06;;;;;;;4.90;1.43;;;5.80;84.30;;;9.17;50.59;97963.50;5029478;28;20065;-42
2023/01/14 03:44:32;;;;;;;6.00;2.67;;;5.80;84.30;;;9.06;50.58;97951.25;5029364;28;20037;-42
2023/01/14 03:47:01;;;;;;;5.07;1.77;;;5.70;84.30;;;9.01;50.79;97943.72;5021603;28;20057;-41
2023/01/14 03:49:28;;;;;;;5.10;1.80;;;5.70;84.20;;;8.98;50.58;97954.63;5028938;28;20049;-43
2023/01/14 03:52:20;;;;;;;3.53;1.53;;;5.70;84.40;;;8.91;50.60;97950.88;5030247;28;20038;-41
2023/01/14 03:55:23;;;;;;;6.57;1.33;;;5.60;84.30;;;8.85;50.71;97940.81;5029208;28;20064;-43
2023/01/14 03:58:17;;;;;;;4.30;1.57;;;5.60;84.60;;;8.81;50.66;97934.97;5028903;28;20049;-42
2023/01/14 04:00:55;;;;;;;2.45;1.63;;;5.50;84.80;;;8.78;51.03;97929.09;5029126;28;20042;-41
2023/01/14 04:03:25;;;;;;;4.27;1.47;;;5.50;85.20;;;8.76;50.86;97929.25;5029360;28;20041;-41
2023/01/14 04:05:53;;;;;;;3.00;1.63;;;5.50;85.10;;;8.73;50.63;97924.22;5028216;28;20041;-43
2023/01/14 04:08:23;;;;;;;9.67;1.60;;;5.50;85.20;;;8.72;50.88;97924.38;5028447;28;20041;-42
2023/01/14 04:10:51;;;;;;;5.50;1.50;;;5.40;85.00;;;8.71;50.85;97928.00;5029083;28;20113;-42
2023/01/14 04:16:04;;;;;;;5.63;1.20;;;5.40;85.10;;;8.69;50.99;97922.00;5033512;28;20037;-42
2023/01/14 04:18:32;;;;;;;5.17;1.50;;;5.40;85.00;;;8.66;51.10;97918.63;5033604;28;20050;-43
2023/01/14 04:20:59;;;;;;;9.20;2.57;;;5.40;85.00;;;8.67;50.91;97917.66;5033404;28;20053;-42
2023/01/14 04:23:27;;;;;;;5.10;1.70;;;5.40;85.20;;;8.70;51.01;97918.34;5033713;28;20045;-43
2023/01/14 04:25:57;;;;;;;7.17;2.00;;;5.50;85.60;;;8.73;51.26;97912.78;5033526;28;20041;-42
2023/01/14 04:28:25;;;;;;;4.93;1.50;;;5.50;85.50;;;8.73;51.20;97908.31;5033024;28;20413;-44
2023/01/14 04:30:54;;;;;;;5.83;2.10;;;5.60;85.50;;;8.78;51.02;97907.84;5033189;28;20501;-41
2023/01/14 04:33:22;;;;;;;4.50;1.70;;;5.60;85.40;;;8.79;51.49;97912.19;5033498;28;20041;-41
2023/01/14 04:35:50;;;;;;;5.63;1.40;;;5.60;85.50;;;8.78;51.47;97906.06;5033258;28;20045;-46
2023/01/14 04:38:22;;;;;;;5.20;1.30;;;5.60;85.50;;;8.78;51.15;97906.06;5033137;28;20037;-42
2023/01/14 04:40:56;;;;;;;5.43;1.60;;;5.60;85.80;;;8.78;51.45;97905.19;5032857;28;20068;-44
2023/01/14 04:43:24;;;;;;;5.37;2.10;;;5.60;86.00;;;8.75;51.46;97903.69;5032137;28;20068;-43
2023/01/14 04:45:54;;;;;;;4.00;1.20;;;5.60;86.20;;;8.72;51.68;97901.31;5032798;28;20508;-41
2023/01/14 04:48:24;;;;;;;6.40;1.10;;;5.50;86.70;;;8.73;51.77;97900.34;5032922;28;20049;-42
2023/01/14 04:50:53;;;;;;;5.13;1.80;;;5.50;87.00;;;8.74;51.83;97896.69;5031771;28;20042;-44
2023/01/14 04:53:23;;;;;;;3.80;1.10;;;5.50;87.10;;;8.75;51.72;97889.59;5032036;28;20420;-42
2023/01/14 04:55:55;;;;;;;2.67;1.33;;;5.50;88.00;;;8.74;51.61;97887.88;5032696;28;20034;-42
2023/01/14 04:58:23;;;;;;;5.23;2.23;;;5.50;87.40;;;8.73;51.56;97895.03;5032845;28;20417;-45
2023/01/14 05:00:51;;;;;;;6.07;1.83;;;5.50;87.50;;;8.75;51.73;97887.75;5031457;28;20045;-42
2023/01/14 05:03:19;;;;;;;1.77;1.10;;;5.50;87.40;;;8.75;51.73;97887.75;5029839;28;20051;-44
2023/01/14 05:05:47;;;;;;;6.20;1.93;;;5.50;87.50;;;8.76;51.76;97892.09;5031773;28;20292;-44
2023/01/14 05:08:15;;;;;;;2.47;0.93;;;5.50;87.60;;;8.79;51.79;97889.13;5032367;28;20507;-42
2023/01/14 05:10:43;;;;;;;3.70;1.20;;;5.50;87.60;;;8.81;52.04;97895.13;5032713;28;20037;-44
2023/01/14 05:13:11;;;;;;;7.93;1.30;;;5.60;87.60;;;8.83;51.79;97887.88;5024826;28;20037;-42
2023/01/14 05:15:41;;;;;;;8.93;1.57;;;5.60;87.30;;;8.84;51.79;97894.88;5032857;28;20042;-42
2023/01/14 05:18:13;;;;;;;3.27;1.53;;;5.60;87.40;;;8.84;51.80;97894.88;5032371;28;20033;-42
2023/01/14 05:20:43;;;;;;;4.87;1.40;;;5.60;87.40;;;8.81;51.75;97896.97;5032627;28;20409;-43
2023/01/14 05:23:15;;;;;;;2.70;0.90;;;5.50;87.50;;;8.79;51.78;97893.63;5024618;28;20492;-41
2023/01/14 05:25:43;;;;;;;4.10;1.40;;;5.50;87.80;;;8.80;51.73;97892.63;5014732;28;20045;-45
2023/01/14 05:28:15;;;;;;;5.10;1.30;;;5.50;87.50;;;8.82;51.66;97888.88;5024110;28;20056;-43
2023/01/14 05:30:43;;;;;;;7.07;2.03;;;5.60;87.50;;;8.84;51.79;97891.34;5031298;28;20045;-43
2023/01/14 05:33:12;;;;;;;3.20;1.50;;;5.60;87.40;;;8.84;51.69;97888.69;5030706;28;20052;-43
2023/01/14 05:35:40;;;;;;;6.03;1.50;;;5.60;87.60;;;8.83;51.82;97871.94;5031914;28;20488;-42
2023/01/14 05:38:09;;;;;;;6.80;2.17;;;5.60;87.60;;;8.82;51.91;97870.28;5031960;28;20064;-43
2023/01/14 05:40:38;;;;;;;5.10;1.80;;;5.60;87.70;;;8.82;51.71;97861.44;5032585;28;20042;-43
2023/01/14 05:45:52;;;;;;;6.10;2.03;;;5.60;87.70;;;8.78;51.91;97852.97;5031042;28;20408;-42
2023/01/14 05:48:23;;;;;;;4.13;1.77;;;5.50;88.00;;;8.76;52.05;97848.75;5030634;28;20511;-42
2023/01/14 05:50:57;;;;;;;9.07;1.97;;;5.60;87.80;;;8.75;52.00;97847.09;5031750;28;20041;-44
2023/01/14 05:53:29;;;;;;;5.07;1.33;;;5.50;87.70;;;8.74;51.83;97846.25;5030275;28;20053;-44
2023/01/14 05:55:59;;;;;;;3.70;1.90;;;5.50;87.80;;;8.74;51.94;97848.91;5031871;28;20045;-43
2023/01/14 05:58:27;;;;;;;2.17;1.30;;;5.50;87.90;;;8.74;52.11;97843.59;5031621;28;20045;-44
2023/01/14 06:06:39;;;;;;;5.37;1.23;;;5.50;87.50;;;8.69;51.95;97842.38;5026470;28;20045;-41
2023/01/14 06:09:11;;;;;;;3.45;1.70;;;5.50;87.20;;;8.67;52.03;97838.03;5029082;28;20052;-43
2023/01/14 06:11:45;;;;;;;2.53;1.30;;;5.50;87.10;;;8.67;51.95;97839.88;5031349;28;20053;-44
2023/01/14 06:14:13;;;;;;;3.67;1.30;;;5.50;87.90;;;8.66;51.70;97836.34;5030451;28;20420;-42
2023/01/14 06:16:41;;;;;;;5.80;1.57;;;5.50;86.90;;;8.66;51.85;97836.34;5030356;28;20049;-44
2023/01/14 06:19:12;;;;;;;4.13;1.73;;;5.50;87.00;;;8.65;51.91;97845.31;5046346;28;20444;-41
2023/01/14 06:21:40;;;;;;;3.10;1.30;;;5.50;87.00;;;8.63;51.87;97844.63;5031403;28;20056;-42
2023/01/14 06:24:08;;;;;;;4.83;1.60;;;5.40;86.90;;;8.62;51.82;97839.44;5029442;28;20057;-43
2023/01/14 06:26:37;;;;;;;4.90;1.47;;;5.40;87.00;;;8.63;51.89;97839.31;5030244;28;20048;-43
2023/01/14 06:29:11;;;;;;;3.70;1.30;;;5.40;87.00;;;8.64;51.66;97834.84;5031311;28;20041;-41
2023/01/14 06:31:41;;;;;;;2.83;1.37;;;5.40;86.80;;;8.62;51.73;97821.69;5029883;28;20049;-42
2023/01/14 06:34:09;;;;;;;3.43;1.30;;;5.40;87.10;;;8.63;52.25;97828.69;5013991;28;20049;-42
2023/01/14 06:36:37;;;;;;;5.10;1.37;;;5.50;87.10;;;8.64;51.78;97829.53;5030525;28;20040;-41
2023/01/14 06:39:06;;;;;;;5.27;1.90;;;5.50;86.60;;;8.63;51.58;97827.88;5030439;28;20037;-41
2023/01/14 06:41:33;;;;;;;2.67;1.40;;;5.50;86.70;;;8.64;51.80;97816.25;5029910;28;20036;-42
2023/01/14 06:44:02;;;;;;;4.07;1.20;;;5.50;86.70;;;8.65;52.05;97826.72;5030956;28;20060;-44
2023/01/14 06:46:30;;;;;;;5.90;1.67;;;5.50;86.70;;;8.70;51.83;97815.66;5030077;28;20052;-41
2023/01/14 06:48:58;;;;;;;6.90;1.73;;;5.50;86.90;;;8.73;51.94;97822.53;5030514;28;20046;-44
2023/01/14 06:51:26;;;;;;;7.70;2.57;;;5.60;86.70;;;8.78;52.08;97821.13;5029682;28;20072;-42
2023/01/14 06:53:54;;;;;;;5.03;1.50;;;5.60;86.50;;;8.82;51.87;97817.19;5029680;28;20505;-41
2023/01/14 06:56:22;;;;;;;5.70;1.37;;;5.70;86.60;;;8.88;51.77;97807.81;5031059;28;20056;-41
2023/01/14 06:58:50;;;;;;;7.17;1.70;;;5.70;86.60;;;8.94;51.94;97811.69;5030656;28;20056;-42
2023/01/14 07:01:19;;;;;;;8.23;2.23;;;5.80;86.10;;;8.98;51.92;97805.94;5021765;28;20045;-42
2023/01/14 07:03:47;;;;;;;4.43;1.60;;;5.80;86.00;;;9.02;51.68;97794.03;5030658;28;20041;-42
2023/01/14 07:06:15;;;;;;;5.77;2.20;;;5.90;85.60;;;9.04;51.77;97791.22;5030650;28;20041;-45
2023/01/14 07:08:43;;;;;;;6.53;1.50;;;5.90;85.30;;;9.05;51.59;97791.09;5030413;28;20046;-42
2023/01/14 07:11:12;;;;;;;5.63;1.77;;;5.90;85.30;;;9.10;51.69;97787.16;5029809;28;20045;-41
2023/01/14 07:13:40;;;;;;;6.57;1.33;;;6.00;85.30;;;9.12;51.69;97791.31;5030925;28;20045;-43
2023/01/14 07:16:08;;;;;;;4.77;1.87;;;6.00;85.00;;;9.15;51.72;97777.75;5030236;28;20038;-42
2023/01/14 07:18:36;;;;;;;6.87;1.93;;;6.00;85.00;;;9.21;51.55;97768.34;5030439;28;20053;-41
2023/01/14 07:21:04;;;;;;;7.63;1.90;;;6.10;85.10;;;9.22;51.51;97770.84;5028820;28;20072;-41
2023/01/14 07:23:31;;;;;;;5.43;2.07;;;6.10;84.90;;;9.19;51.53;97765.84;5030346;28;20046;-43
2023/01/14 07:25:59;;;;;;;4.70;1.60;;;6.10;84.80;;;9.17;51.51;97762.50;5030517;28;20080;-45
2023/01/14 07:28:32;;;;;;;10.43;1.87;;;6.10;85.10;;;9.18;51.74;97764.16;5030474;28;20056;-42
2023/01/14 07:31:05;;;;;;;10.20;2.03;;;6.10;85.00;;;9.20;51.69;97764.84;5030134;28;20670;-42
2023/01/14 07:33:35;;;;;;;7.97;2.30;;;6.10;85.10;;;9.23;51.66;97753.09;5030868;28;20053;-42
2023/01/14 07:36:03;;;;;;;5.10;2.23;;;6.10;85.60;;;9.27;51.62;97754.47;5030149;28;20666;-41
2023/01/14 07:38:31;;;;;;;7.30;1.70;;;6.10;85.90;;;9.35;51.95;97741.25;5030288;28;20037;-44
2023/01/14 07:40:59;;;;;;;6.70;1.43;;;6.20;86.10;;;9.41;51.88;97734.50;5030037;28;20054;-45
2023/01/14 07:43:27;;;;;;;8.60;2.23;;;6.20;85.90;;;9.44;51.71;97715.56;5030049;28;20525;-41
2023/01/14 07:45:58;;;;;;;7.63;1.77;;;6.30;86.20;;;9.52;51.68;97710.38;5030484;28;20504;-41
2023/01/14 07:48:28;;;;;;;9.20;2.03;;;6.40;86.00;;;9.55;51.97;97711.88;5033369;28;20042;-42
2023/01/14 07:50:56;;;;;;;4.17;1.83;;;6.40;85.80;;;9.59;51.64;97714.06;5034069;28;20095;-43
2023/01/14 07:53:24;;;;;;;5.77;2.47;;;6.40;86.00;;;9.66;51.85;97711.63;5033970;28;20044;-43
2023/01/14 07:55:52;;;;;;;4.87;1.77;;;6.50;86.00;;;9.70;51.84;97714.81;5034014;28;20034;-45
2023/01/14 07:58:21;;;;;;;9.43;2.60;;;6.50;85.80;;;9.73;51.56;97709.19;5032336;28;20064;-44
2023/01/14 08:00:49;;;;;;;6.47;2.00;;;6.60;85.80;;;9.76;51.92;97709.72;5033970;28;20068;-46
2023/01/14 08:03:17;;;;;;;8.37;2.00;;;6.70;85.60;;;9.76;51.52;97700.91;5033819;28;20524;-43
2023/01/14 08:05:45;;;;;;;5.50;2.10;;;6.70;85.60;;;9.74;51.82;97690.44;5028040;28;20089;-45
2023/01/14 08:08:13;;;;;;;6.07;1.80;;;6.70;85.60;;;9.79;51.94;97684.63;5032485;28;20424;-42
2023/01/14 08:10:42;;;;;;;8.40;2.27;;;6.70;85.80;;;9.76;51.67;97679.63;5033485;28;20041;-46
2023/01/14 08:13:14;;;;;;;6.00;1.70;;;6.70;85.60;;;9.74;51.98;97687.75;5033380;28;20053;-46
2023/01/14 08:15:42;;;;;;;5.17;2.10;;;6.70;85.80;;;9.80;52.16;97691.63;5033944;28;20041;-42
2023/01/14 08:18:10;;;;;;;5.07;1.57;;;6.80;86.60;;;9.85;51.91;97692.00;5032363;28;20046;-42
2023/01/14 08:20:37;;;;;;;3.83;1.97;;;6.80;85.60;;;9.90;52.29;97692.38;5033549;28;20253;-42
2023/01/14 08:23:05;;;;;;;7.20;1.77;;;6.80;85.80;;;9.93;51.93;97689.41;5029535;28;20050;-47
2023/01/14 08:25:33;;;;;;;4.87;1.57;;;6.90;86.20;;;9.98;52.16;97689.78;5033540;28;20045;-43
2023/01/14 08:28:01;;;;;;;5.97;2.00;;;6.90;86.30;;;9.98;52.06;97697.75;5033293;28;20351;-44
2023/01/14 08:30:28;;;;;;;4.47;1.77;;;6.90;86.50;;;10.01;52.17;97692.09;5033404;28;20046;-41
2023/01/14 08:32:56;;;;;;;6.17;2.03;;;6.90;86.80;;;10.07;51.81;97695.97;5033256;28;20066;-42
2023/01/14 08:35:24;;;;;;;6.47;1.80;;;6.90;86.70;;;10.10;52.22;97685.03;5033025;28;20064;-45
2023/01/14 08:37:51;;;;;;;6.57;1.90;;;7.00;88.00;;;10.16;52.30;97683.56;5033191;28;20045;-41
2023/01/14 08:40:19;;;;;;;4.90;2.30;;;7.10;87.00;;;10.16;52.33;97695.03;5033186;28;20052;-41
2023/01/14 08:42:48;;;;;;;4.50;1.37;;;7.10;86.70;;;10.14;52.44;97693.50;5033330;28;20068;-42
2023/01/14 08:45:15;;;;;;;9.47;1.87;;;7.10;86.50;;;10.15;52.48;97685.38;5033651;28;20045;-41
2023/01/14 08:47:43;;;;;;;5.43;1.83;;;7.10;86.80;;;10.18;52.31;97686.91;5032730;28;20496;-41
2023/01/14 08:50:11;;;;;;;3.87;1.50;;;7.10;87.00;;;10.18;52.13;97679.75;5032992;28;20048;-42
2023/01/14 08:52:39;;;;;;;5.30;2.70;;;7.10;87.20;;;10.21;52.19;97686.56;5033172;28;20049;-41
2023/01/14 08:55:07;;;;;;;4.73;2.03;;;7.10;87.20;;;10.25;52.32;97670.16;5033077;28;20496;-42
2023/01/14 08:57:35;;;;;;;2.23;1.27;;;7.10;87.20;;;10.31;52.17;97674.00;5031810;28;20045;-42
2023/01/14 09:00:05;;;;;;;5.43;1.50;;;7.20;87.20;;;10.36;51.98;97671.72;5030510;28;20194;-44
2023/01/14 09:02:33;;;;;;;7.97;1.87;;;7.20;87.30;;;10.40;51.80;97675.72;5031921;28;20060;-41
2023/01/14 09:05:01;;;;;;;3.70;1.47;;;7.30;87.30;;;10.46;52.04;97679.56;5033033;28;20044;-42
2023/01/14 09:18:36;;;;;;;5.43;2.27;;;7.40;88.10;;;10.61;52.09;97640.72;5025782;28;20037;-44
2023/01/14 09:21:04;;;;;;;6.67;1.57;;;7.40;87.20;;;10.66;51.70;97642.03;5031906;28;20042;-43
2023/01/14 09:23:32;;;;;;;6.53;1.80;;;7.40;87.30;;;10.68;51.71;97646.22;5031220;28;20504;-42
2023/01/14 09:26:00;;;;;;;4.57;1.50;;;7.50;87.20;;;10.69;52.16;97652.38;5031620;28;20073;-45
2023/01/14 09:28:27;;;;;;;2.87;1.70;;;7.50;87.50;;;10.74;51.88;97642.06;5023986;28;20068;-42
2023/01/14 09:30:55;;;;;;;2.67;1.23;;;7.60;87.40;;;10.77;51.85;97647.06;5031263;28;20054;-42
2023/01/14 09:33:23;;;;;;;4.47;1.37;;;7.60;87.10;;;10.77;52.04;97644.41;5032199;28;20041;-44
2023/01/14 09:35:51;;;;;;;5.27;1.30;;;7.60;87.00;;;10.81;52.14;97640.44;5032346;28;20038;-41
2023/01/14 09:38:18;;;;;;;7.90;1.60;;;7.70;87.30;;;10.85;52.00;97625.78;5031800;28;20501;-43
2023/01/14 09:40:46;;;;;;;2.20;1.43;;;7.70;87.10;;;10.91;52.23;97633.13;5031764;28;20041;-42
2023/01/14 09:43:17;;;;;;;3.73;1.30;;;7.80;87.00;;;10.94;52.21;97634.63;5032474;28;20393;-43
2023/01/14 09:45:48;;;;;;;4.00;1.70;;;7.80;86.90;;;11.02;52.24;97631.97;5032056;28;20045;-42
2023/01/14 09:48:22;;;;;;;6.37;1.47;;;7.90;86.80;;;11.08;52.14;97634.00;5031600;28;20413;-43
2023/01/14 09:50:58;;;;;;;2.22;1.08;;;7.90;86.80;;;11.17;51.75;97638.34;5030494;28;20044;-43
2023/01/14 09:54:03;;;;;;;2.90;1.37;;;8.00;86.80;;;11.22;51.79;97628.03;5031758;28;20040;-41
2023/01/14 09:56:43;;;;;;;6.17;1.77;;;8.10;86.50;;;11.26;51.56;97633.00;5009976;28;20116;-43
2023/01/14 09:59:36;;;;;;;9.47;4.00;;;8.00;86.50;;;11.28;51.74;97633.66;5029392;28;20277;-45
2023/01/14 10:02:19;;;;;;;9.93;3.10;;;8.10;86.50;;;11.39;51.93;97636.84;5031464;28;20045;-42
2023/01/14 10:05:30;;;;;;;6.37;3.87;;;8.20;86.50;;;11.45;51.64;97618.53;5031765;28;20041;-41
2023/01/14 10:08:02;;;;;;;13.97;2.50;;;8.20;86.60;;;11.49;51.80;97623.34;5026272;28;20501;-46
2023/01/14 10:10:39;;;;;;;3.30;1.50;;;8.30;86.30;;;11.46;51.47;97610.38;5022852;28;20044;-42
2023/01/14 10:13:16;;;;;;;3.67;1.33;;;8.30;86.40;;;11.52;51.45;97604.34;5030259;28;20038;-44
2023/01/14 10:15:57;;;;;;;3.87;1.13;;;8.30;86.40;;;11.56;51.40;97594.19;5030257;28;20099;-43
2023/01/14 10:18:30;;;;;;;3.23;1.10;;;8.40;86.10;;;11.59;51.65;97540.50;5029769;28;20073;-41
2023/01/14 10:21:02;;;;;;;2.50;1.33;;;8.40;86.10;;;11.60;51.43;97539.53;5031173;28;20048;-42
2023/01/14 10:23:37;;;;;;;4.93;1.70;;;8.50;85.60;;;11.55;51.85;97523.19;5021975;28;20033;-41
2023/01/14 10:26:16;;;;;;;3.33;1.33;;;8.50;85.60;;;11.59;51.60;97522.69;5029913;28;20075;-42
2023/01/14 10:28:49;;;;;;;3.77;1.07;;;8.60;85.70;;;11.65;51.78;97531.00;5029773;28;20489;-42
2023/01/14 10:31:31;;;;;;;3.23;1.20;;;8.50;85.50;;;11.74;51.46;97529.97;5027755;28;20595;-41
2023/01/14 10:33:59;;;;;;;4.53;1.30;;;8.60;85.60;;;11.77;51.62;97522.47;5031163;28;20455;-42
2023/01/14 10:36:30;;;;;;;3.97;1.23;;;8.60;85.70;;;11.83;51.38;97510.28;5029536;28;20037;-42
2023/01/14 10:39:01;;;;;;;2.97;1.33;;;8.60;86.00;;;11.88;51.56;97499.91;5030960;28;20041;-45
2023/01/14 10:41:48;;;;;;;3.87;1.30;;;8.70;86.80;;;11.86;51.65;97501.91;5023240;28;20073;-44
2023/01/14 10:44:30;;;;;;;2.03;1.33;;;8.70;85.70;;;11.89;51.51;97498.09;5029882;28;20068;-44
2023/01/14 10:47:13;;;;;;;3.63;1.33;;;8.80;85.50;;;11.94;51.51;97499.28;5029853;28;20052;-43
2023/01/14 10:50:25;;;;;;;6.13;1.87;;;8.80;85.50;;;11.97;51.75;97490.09;5026496;28;20056;-41
2023/01/14 10:52:54;;;;;;;3.27;1.27;;;8.80;85.50;;;12.05;51.23;97489.22;5025258;28;20046;-42
2023/01/14 10:55:30;;;;;;;3.57;1.50;;;8.90;85.90;;;12.08;51.31;97481.69;5029424;28;20041;-44
2023/01/14 10:58:15;;;;;;;6.40;1.60;;;8.90;85.80;;;12.12;51.57;97483.00;5030520;28;20041;-43
2023/01/14 11:00:51;;;;;;;3.97;2.03;;;8.90;85.60;;;12.19;51.02;97472.44;5023242;28;20067;-41
2023/01/14 11:03:30;;;;;;;5.57;1.63;;;9.00;85.70;;;12.21;51.53;97460.63;5029566;28;20053;-43
2023/01/14 11:06:04;;;;;;;4.03;1.50;;;9.00;85.60;;;12.21;51.40;97454.41;5025837;28;20049;-43
2023/01/14 11:08:47;;;;;;;3.27;1.20;;;9.10;85.40;;;12.24;51.36;97437.25;5021367;28;20045;-43
2023/01/14 11:11:19;;;;;;;1.97;1.17;;;9.10;85.00;;;12.19;51.44;97438.59;5030805;28;20500;-42
2023/01/14 11:13:50;;;;;;;2.57;1.60;;;9.10;85.10;;;12.14;51.28;97430.28;5029754;28;20048;-46
2023/01/14 11:16:21;;;;;;;2.50;1.10;;;9.10;85.00;;;12.17;51.24;97426.44;5013694;28;20052;-44
2023/01/14 11:18:55;;;;;;;2.67;1.17;;;9.10;85.10;;;12.15;51.66;97431.94;5030328;28;20519;-43
2023/01/14 11:21:25;;;;;;;4.63;1.65;;;9.10;85.00;;;12.15;51.33;97426.59;5029788;28;20520;-43
2023/01/14 11:24:01;;;;;;;5.03;1.50;;;9.10;84.90;;;12.15;51.22;97421.25;5034557;28;20037;-42